createdAt,value
2022-09-28T00:01:01.784Z,9.4
2022-09-28T00:02:05.292Z,9.2
2022-09-28T00:03:08.493Z,9.3
2022-09-28T00:04:11.978Z,9.3
2022-09-28T00:05:14.751Z,9.4
2022-09-28T00:06:17.813Z,9.4
2022-09-28T00:07:21.173Z,9.4
2022-09-28T00:08:24.162Z,9.4
2022-09-28T00:09:28.151Z,9.4
2022-09-28T00:10:30.172Z,9.3
2022-09-28T00:11:33.568Z,9.3
2022-09-28T00:12:37.418Z,9.3
2022-09-28T00:13:40.478Z,9.4
2022-09-28T00:14:43.467Z,9.3
2022-09-28T00:15:46.883Z,9.2
2022-09-28T00:16:50.921Z,9.2
2022-09-28T00:17:54.431Z,9.3
2022-09-28T00:18:57.140Z,9.3
2022-09-28T00:20:00.484Z,9.4
2022-09-28T00:21:03.273Z,9.4
2022-09-28T00:22:06.463Z,9.4
2022-09-28T00:23:09.053Z,9.4
2022-09-28T00:24:12.420Z,9.3
2022-09-28T00:25:15.545Z,9.2
2022-09-28T00:26:18.538Z,9.3
2022-09-28T00:27:21.881Z,9.4
2022-09-28T00:28:25.709Z,9.3
2022-09-28T00:29:28.849Z,9.3
2022-09-28T00:30:31.917Z,9.3
2022-09-28T00:31:34.837Z,9.3
2022-09-28T00:32:37.862Z,9.3
2022-09-28T00:33:40.730Z,9.3
2022-09-28T00:34:43.773Z,9.4
2022-09-28T00:35:46.607Z,9.4
2022-09-28T00:36:49.301Z,9.3
2022-09-28T00:37:52.350Z,9.3
2022-09-28T00:38:56.088Z,9.3
2022-09-28T00:39:59.530Z,9.4
2022-09-28T00:41:02.737Z,9.4
2022-09-28T00:42:05.612Z,9.4
2022-09-28T00:43:08.561Z,9.4
2022-09-28T00:44:12.631Z,9.4
2022-09-28T00:45:14.866Z,9.4
2022-09-28T00:46:18.326Z,9.2
2022-09-28T00:47:22.080Z,9.2
2022-09-28T00:48:25.226Z,9.2
2022-09-28T00:49:28.469Z,9.2
2022-09-28T00:50:31.268Z,9.2
2022-09-28T00:51:34.147Z,9.2
2022-09-28T00:52:37.852Z,9.3
2022-09-28T00:53:40.924Z,9.2
2022-09-28T00:54:44.133Z,9.2
2022-09-28T00:55:47.851Z,9.2
2022-09-28T00:56:50.749Z,9.3
2022-09-28T00:57:53.741Z,9.3
2022-09-28T00:58:57.624Z,9.4
2022-09-28T01:00:01.218Z,9.4
2022-09-28T01:01:04.852Z,9.3
2022-09-28T01:02:08.576Z,9.3
2022-09-28T01:03:11.116Z,9.3
2022-09-28T01:04:13.905Z,9.2
2022-09-28T01:05:16.710Z,9.4
2022-09-28T01:06:20.150Z,9.4
2022-09-28T01:07:23.311Z,9.3
2022-09-28T01:08:26.024Z,9.2
2022-09-28T01:09:29.178Z,9.2
2022-09-28T01:10:32.526Z,9.2
2022-09-28T01:11:35.671Z,9.2
2022-09-28T01:12:38.825Z,9.2
2022-09-28T01:13:41.264Z,9.1
2022-09-28T01:14:44.214Z,9.1
2022-09-28T01:15:48.303Z,9.2
2022-09-28T01:16:52.182Z,9.3
2022-09-28T01:17:54.424Z,9.3
2022-09-28T01:18:56.657Z,9.3
2022-09-28T01:19:59.183Z,9.2
2022-09-28T01:21:02.855Z,9.3
2022-09-28T01:22:05.923Z,9.2
2022-09-28T01:23:08.523Z,9.1
2022-09-28T01:24:10.792Z,9.2
2022-09-28T01:25:13.588Z,9
2022-09-28T01:26:16.181Z,9
2022-09-28T01:27:18.702Z,9.1
2022-09-28T01:28:21.141Z,9.1
2022-09-28T01:29:24.512Z,9.1
2022-09-28T01:30:27.452Z,9.1
2022-09-28T01:31:31.944Z,9.1
2022-09-28T01:32:35.425Z,9.1
2022-09-28T01:33:38.445Z,9.1
2022-09-28T01:34:40.956Z,9.1
2022-09-28T01:35:44.135Z,9.2
2022-09-28T01:36:46.462Z,9.2
2022-09-28T01:37:49.454Z,9.3
2022-09-28T01:38:52.828Z,9.3
2022-09-28T01:39:56.039Z,9.1
2022-09-28T01:40:59.334Z,9
2022-09-28T01:42:02.577Z,8.9
2022-09-28T01:43:04.895Z,8.9
2022-09-28T01:44:07.982Z,9
2022-09-28T01:45:10.879Z,9
2022-09-28T01:46:14.452Z,8.9
2022-09-28T01:47:18.632Z,8.9
2022-09-28T01:48:21.713Z,8.9
2022-09-28T01:49:25.448Z,9.1
2022-09-28T01:50:28.702Z,9.1
2022-09-28T01:51:31.862Z,9
2022-09-28T01:52:34.188Z,9.1
2022-09-28T01:53:37.267Z,9.1
2022-09-28T01:54:39.774Z,9
2022-09-28T01:55:43.781Z,9
2022-09-28T01:56:47.404Z,9
2022-09-28T01:57:50.117Z,8.8
2022-09-28T01:58:53.193Z,8.9
2022-09-28T01:59:56.542Z,8.9
2022-09-28T02:00:59.501Z,9
2022-09-28T02:02:03.492Z,9
2022-09-28T02:03:07.370Z,8.9
2022-09-28T02:04:10.525Z,8.9
2022-09-28T02:05:13.986Z,8.9
2022-09-28T02:06:16.499Z,8.9
2022-09-28T02:07:19.654Z,8.9
2022-09-28T02:08:23.044Z,9.1
2022-09-28T02:09:33.650Z,9.1
2022-09-28T02:10:37.443Z,9
2022-09-28T02:11:40.234Z,8.8
2022-09-28T02:12:42.835Z,8.9
2022-09-28T02:13:45.902Z,8.9
2022-09-28T02:14:48.772Z,9
2022-09-28T02:15:51.868Z,8.9
2022-09-28T02:16:54.582Z,8.9
2022-09-28T02:17:57.654Z,9
2022-09-28T02:19:01.721Z,9
2022-09-28T02:20:04.232Z,9.1
2022-09-28T02:21:07.032Z,9
2022-09-28T02:22:09.913Z,9.1
2022-09-28T02:23:13.343Z,9
2022-09-28T02:24:23.166Z,9
2022-09-28T02:25:26.150Z,9
2022-09-28T02:26:29.500Z,8.9
2022-09-28T02:27:32.915Z,8.9
2022-09-28T02:28:35.635Z,9
2022-09-28T02:29:38.699Z,8.9
2022-09-28T02:30:42.124Z,8.9
2022-09-28T02:31:45.651Z,8.9
2022-09-28T02:32:48.673Z,8.9
2022-09-28T02:33:51.827Z,9
2022-09-28T02:34:55.981Z,9
2022-09-28T02:35:58.892Z,9
2022-09-28T02:37:02.137Z,9
2022-09-28T02:38:05.569Z,8.9
2022-09-28T02:39:08.929Z,9
2022-09-28T02:40:11.714Z,9
2022-09-28T02:41:14.792Z,9
2022-09-28T02:42:17.867Z,9
2022-09-28T02:43:21.603Z,8.9
2022-09-28T02:44:24.589Z,9
2022-09-28T02:45:28.031Z,8.9
2022-09-28T02:46:31.232Z,9
2022-09-28T02:47:34.303Z,8.9
2022-09-28T02:49:22.494Z,8.8
2022-09-28T02:50:27.070Z,8.9
2022-09-28T02:51:29.868Z,9
2022-09-28T02:52:32.859Z,9
2022-09-28T02:53:35.646Z,8.9
2022-09-28T02:54:38.542Z,9
2022-09-28T02:55:41.639Z,9
2022-09-28T02:56:44.624Z,8.9
2022-09-28T02:57:47.146Z,8.9
2022-09-28T02:58:50.590Z,8.8
2022-09-28T02:59:53.308Z,8.8
2022-09-28T03:00:56.698Z,8.9
2022-09-28T03:01:59.782Z,8.9
2022-09-28T03:03:03.222Z,8.9
2022-09-28T03:04:06.084Z,8.8
2022-09-28T03:05:08.446Z,8.8
2022-09-28T03:06:12.262Z,8.6
2022-09-28T03:07:14.977Z,8.6
2022-09-28T03:08:18.310Z,8.7
2022-09-28T03:09:20.904Z,8.8
2022-09-28T03:10:23.620Z,8.7
2022-09-28T03:11:26.346Z,8.5
2022-09-28T03:12:29.219Z,8.7
2022-09-28T03:13:32.205Z,8.7
2022-09-28T03:14:35.372Z,8.7
2022-09-28T03:15:38.471Z,8.6
2022-09-28T03:16:41.902Z,8.7
2022-09-28T03:17:44.783Z,8.6
2022-09-28T03:18:47.943Z,8.7
2022-09-28T03:19:50.939Z,8.7
2022-09-28T03:20:54.710Z,8.7
2022-09-28T03:21:58.522Z,8.8
2022-09-28T03:23:26.864Z,8.7
2022-09-28T03:24:29.321Z,8.7
2022-09-28T03:25:32.255Z,8.8
2022-09-28T03:26:35.602Z,8.8
2022-09-28T03:27:38.107Z,8.6
2022-09-28T03:28:40.706Z,8.6
2022-09-28T03:29:43.489Z,8.7
2022-09-28T03:30:46.353Z,8.7
2022-09-28T03:31:50.386Z,8.6
2022-09-28T03:32:53.014Z,8.6
2022-09-28T03:33:56.498Z,8.6
2022-09-28T03:34:59.571Z,8.6
2022-09-28T03:36:02.485Z,8.6
2022-09-28T03:37:06.592Z,8.6
2022-09-28T03:38:09.957Z,8.6
2022-09-28T03:39:12.827Z,8.6
2022-09-28T03:40:15.927Z,8.7
2022-09-28T03:41:18.341Z,8.6
2022-09-28T03:42:21.425Z,8.7
2022-09-28T03:43:24.210Z,8.7
2022-09-28T03:44:27.012Z,8.7
2022-09-28T03:45:30.700Z,8.8
2022-09-28T03:46:34.153Z,8.9
2022-09-28T03:47:36.866Z,8.7
2022-09-28T03:48:39.735Z,8.6
2022-09-28T03:49:42.262Z,8.6
2022-09-28T03:50:45.124Z,8.6
2022-09-28T03:51:49.179Z,8.7
2022-09-28T03:52:52.983Z,8.8
2022-09-28T03:53:56.714Z,8.8
2022-09-28T03:54:59.569Z,8.9
2022-09-28T03:56:02.204Z,8.7
2022-09-28T03:57:05.395Z,8.8
2022-09-28T03:58:07.995Z,8.8
2022-09-28T03:59:10.423Z,8.7
2022-09-28T04:00:13.674Z,8.7
2022-09-28T04:01:20.078Z,8.7
2022-09-28T04:02:24.004Z,8.7
2022-09-28T04:03:26.842Z,8.8
2022-09-28T04:04:29.103Z,8.8
2022-09-28T04:05:32.451Z,8.8
2022-09-28T04:06:34.866Z,8.8
2022-09-28T04:07:38.022Z,8.7
2022-09-28T04:08:42.134Z,8.6
2022-09-28T04:09:45.395Z,8.6
2022-09-28T04:10:48.802Z,8.7
2022-09-28T04:12:05.839Z,8.5
2022-09-28T04:13:09.482Z,8.6
2022-09-28T04:14:12.573Z,8.6
2022-09-28T04:15:15.923Z,8.6
2022-09-28T04:16:19.581Z,8.7
2022-09-28T04:17:23.172Z,8.8
2022-09-28T04:18:26.048Z,8.8
2022-09-28T04:19:28.844Z,8.8
2022-09-28T04:20:31.629Z,8.9
2022-09-28T04:21:34.426Z,8.9
2022-09-28T04:22:38.120Z,8.9
2022-09-28T04:23:41.599Z,8.9
2022-09-28T04:24:45.691Z,8.9
2022-09-28T04:25:49.146Z,8.8
2022-09-28T04:26:52.573Z,8.7
2022-09-28T04:27:55.749Z,8.8
2022-09-28T04:29:07.399Z,8.8
2022-09-28T04:30:09.922Z,8.8
2022-09-28T04:31:13.705Z,8.8
2022-09-28T04:32:16.658Z,8.8
2022-09-28T04:33:20.101Z,8.8
2022-09-28T04:34:23.273Z,8.8
2022-09-28T04:35:26.698Z,8.9
2022-09-28T04:36:29.774Z,8.8
2022-09-28T04:37:33.189Z,8.8
2022-09-28T04:38:55.137Z,8.7
2022-09-28T04:39:59.167Z,8.6
2022-09-28T04:41:02.602Z,8.6
2022-09-28T04:42:06.107Z,8.6
2022-09-28T04:43:09.869Z,8.5
2022-09-28T04:44:12.470Z,8.6
2022-09-28T04:45:16.472Z,8.6
2022-09-28T04:46:20.061Z,8.6
2022-09-28T04:47:22.774Z,8.6
2022-09-28T04:48:25.570Z,8.6
2022-09-28T04:49:28.682Z,8.6
2022-09-28T04:50:31.853Z,8.6
2022-09-28T04:51:35.007Z,8.6
2022-09-28T04:52:37.445Z,8.6
2022-09-28T04:53:40.701Z,8.6
2022-09-28T04:54:44.112Z,8.6
2022-09-28T04:55:47.905Z,8.7
2022-09-28T04:56:51.010Z,8.7
2022-09-28T04:57:53.825Z,8.6
2022-09-28T04:58:56.787Z,8.6
2022-09-28T05:00:00.510Z,8.7
2022-09-28T05:01:04.115Z,8.6
2022-09-28T05:02:07.733Z,8.7
2022-09-28T05:03:11.204Z,8.6
2022-09-28T05:04:14.083Z,8.6
2022-09-28T05:05:17.432Z,8.6
2022-09-28T05:06:19.687Z,8.6
2022-09-28T05:07:22.553Z,8.6
2022-09-28T05:08:24.693Z,8.6
2022-09-28T05:09:28.127Z,8.6
2022-09-28T05:10:30.963Z,8.7
2022-09-28T05:11:34.839Z,8.7
2022-09-28T05:12:37.659Z,8.6
2022-09-28T05:13:41.068Z,8.6
2022-09-28T05:14:44.057Z,8.6
2022-09-28T05:15:46.930Z,8.7
2022-09-28T05:16:50.447Z,8.6
2022-09-28T05:17:53.847Z,8.6
2022-09-28T05:18:56.792Z,8.6
2022-09-28T05:19:59.237Z,8.7
2022-09-28T05:21:02.322Z,8.7
2022-09-28T05:22:05.479Z,8.6
2022-09-28T05:23:08.071Z,8.6
2022-09-28T05:24:11.021Z,8.6
2022-09-28T05:25:13.743Z,8.6
2022-09-28T05:26:16.867Z,8.6
2022-09-28T05:27:20.704Z,8.6
2022-09-28T05:28:23.020Z,8.6
2022-09-28T05:29:33.061Z,8.6
2022-09-28T05:30:35.786Z,8.5
2022-09-28T05:31:39.901Z,8.6
2022-09-28T05:32:43.133Z,8.6
2022-09-28T05:33:46.277Z,8.6
2022-09-28T05:34:49.081Z,8.6
2022-09-28T05:36:02.978Z,8.6
2022-09-28T05:37:06.533Z,8.6
2022-09-28T05:38:09.135Z,8.7
2022-09-28T05:39:12.193Z,8.6
2022-09-28T05:40:16.332Z,8.7
2022-09-28T05:41:19.233Z,8.7
2022-09-28T05:42:23.316Z,8.6
2022-09-28T05:43:27.073Z,8.6
2022-09-28T05:44:29.413Z,8.6
2022-09-28T05:45:33.203Z,8.6
2022-09-28T05:46:35.623Z,8.5
2022-09-28T05:47:38.417Z,8.5
2022-09-28T05:48:41.011Z,8.6
2022-09-28T05:49:44.438Z,8.5
2022-09-28T05:50:48.171Z,8.6
2022-09-28T05:51:50.964Z,8.6
2022-09-28T05:52:53.839Z,8.6
2022-09-28T05:53:57.081Z,8.6
2022-09-28T05:55:08.413Z,8.5
2022-09-28T05:56:11.792Z,8.5
2022-09-28T05:57:14.984Z,8.6
2022-09-28T05:58:18.530Z,8.6
2022-09-28T05:59:21.715Z,8.6
2022-09-28T06:00:25.191Z,8.6
2022-09-28T06:01:27.935Z,8.8
2022-09-28T06:02:32.123Z,8.8
2022-09-28T06:03:34.999Z,8.7
2022-09-28T06:04:38.074Z,8.7
2022-09-28T06:05:41.501Z,8.6
2022-09-28T06:06:44.285Z,8.7
2022-09-28T06:07:46.868Z,8.7
2022-09-28T06:08:49.833Z,8.7
2022-09-28T06:09:52.704Z,8.6
2022-09-28T06:10:55.766Z,8.6
2022-09-28T06:11:58.663Z,8.7
2022-09-28T06:13:01.578Z,8.7
2022-09-28T06:14:05.424Z,8.6
2022-09-28T06:15:08.512Z,8.5
2022-09-28T06:16:11.653Z,8.5
2022-09-28T06:17:14.874Z,8.5
2022-09-28T06:18:17.626Z,8.4
2022-09-28T06:19:21.036Z,8.3
2022-09-28T06:20:24.770Z,8.4
2022-09-28T06:21:28.192Z,8.3
2022-09-28T06:22:31.921Z,8.4
2022-09-28T06:23:34.739Z,8.3
2022-09-28T06:24:37.460Z,8.3
2022-09-28T06:25:40.343Z,8.4
2022-09-28T06:26:43.411Z,8.4
2022-09-28T06:27:46.203Z,8.4
2022-09-28T06:28:49.168Z,8.3
2022-09-28T06:29:52.921Z,8.4
2022-09-28T06:30:56.253Z,8.4
2022-09-28T06:31:59.752Z,8.4
2022-09-28T06:33:03.574Z,8.2
2022-09-28T06:34:06.649Z,8.3
2022-09-28T06:35:10.004Z,8.3
2022-09-28T06:36:13.159Z,8.4
2022-09-28T06:37:16.613Z,8.5
2022-09-28T06:38:19.997Z,8.6
2022-09-28T06:39:23.719Z,8.7
2022-09-28T06:40:26.862Z,8.6
2022-09-28T06:41:30.105Z,8.6
2022-09-28T06:42:33.457Z,8.5
2022-09-28T06:43:36.373Z,8.5
2022-09-28T06:44:39.190Z,8.5
2022-09-28T06:45:43.433Z,8.6
2022-09-28T06:46:46.989Z,8.5
2022-09-28T06:47:50.065Z,8.5
2022-09-28T06:48:53.147Z,8.6
2022-09-28T06:49:56.484Z,8.6
2022-09-28T06:51:00.287Z,8.7
2022-09-28T06:52:03.281Z,8.6
2022-09-28T06:53:05.398Z,8.6
2022-09-28T06:54:08.391Z,8.6
2022-09-28T06:55:11.799Z,8.6
2022-09-28T06:56:14.865Z,8.6
2022-09-28T06:57:17.932Z,8.7
2022-09-28T06:58:21.394Z,8.7
2022-09-28T06:59:25.009Z,8.6
2022-09-28T07:00:27.619Z,8.7
2022-09-28T07:01:31.755Z,8.8
2022-09-28T07:02:35.137Z,8.9
2022-09-28T07:03:38.054Z,8.9
2022-09-28T07:04:40.659Z,8.9
2022-09-28T07:05:44.173Z,8.9
2022-09-28T07:06:46.994Z,8.8
2022-09-28T07:07:50.385Z,8.7
2022-09-28T07:09:43.812Z,8.7
2022-09-28T07:10:57.812Z,8.8
2022-09-28T07:12:00.408Z,8.8
2022-09-28T07:13:04.249Z,8.9
2022-09-28T07:14:10.472Z,9
2022-09-28T07:15:50.614Z,8.9
2022-09-28T07:17:16.539Z,8.9
2022-09-28T07:18:21.209Z,9.1
2022-09-28T07:19:24.429Z,9.1
2022-09-28T07:20:26.911Z,9.2
2022-09-28T07:21:32.632Z,9.1
2022-09-28T07:22:45.397Z,9.1
2022-09-28T07:23:55.675Z,8.9
2022-09-28T07:24:58.827Z,9
2022-09-28T07:26:02.940Z,8.8
2022-09-28T07:27:07.130Z,9.1
2022-09-28T07:28:09.947Z,9
2022-09-28T07:29:13.489Z,9
2022-09-28T07:30:17.223Z,9.1
2022-09-28T07:31:20.308Z,9.1
2022-09-28T07:32:24.787Z,9.3
2022-09-28T07:33:28.579Z,9.3
2022-09-28T07:34:31.672Z,9.3
2022-09-28T07:35:34.839Z,9.1
2022-09-28T07:36:37.990Z,9.1
2022-09-28T07:37:41.089Z,9.2
2022-09-28T07:38:44.186Z,9.2
2022-09-28T07:39:47.923Z,9.4
2022-09-28T07:40:51.078Z,9.2
2022-09-28T07:42:04.211Z,9.2
2022-09-28T07:43:07.480Z,9.3
2022-09-28T07:44:10.339Z,9.3
2022-09-28T07:45:13.011Z,9.4
2022-09-28T07:46:16.509Z,9.2
2022-09-28T07:47:20.367Z,9.3
2022-09-28T07:48:24.181Z,9.1
2022-09-28T07:49:27.195Z,9.1
2022-09-28T07:50:30.272Z,9.3
2022-09-28T07:51:33.420Z,9.2
2022-09-28T07:52:36.786Z,9.4
2022-09-28T07:53:39.982Z,9.5
2022-09-28T07:54:43.439Z,9.3
2022-09-28T07:55:47.096Z,9.2
2022-09-28T07:56:50.822Z,9.1
2022-09-28T07:57:53.988Z,9.1
2022-09-28T07:58:57.067Z,9.1
2022-09-28T08:00:01.102Z,9.1
2022-09-28T08:01:04.949Z,9.3
2022-09-28T08:02:08.512Z,9.3
2022-09-28T08:03:12.752Z,9.3
2022-09-28T08:04:16.632Z,9.3
2022-09-28T08:05:20.685Z,9.2
2022-09-28T08:06:23.280Z,9.4
2022-09-28T08:07:27.019Z,9.5
2022-09-28T08:08:28.989Z,9.5
2022-09-28T08:09:32.725Z,9.5
2022-09-28T08:10:35.811Z,9.5
2022-09-28T08:11:38.799Z,9.6
2022-09-28T08:12:41.700Z,9.5
2022-09-28T08:13:44.325Z,9.7
2022-09-28T08:14:47.513Z,9.8
2022-09-28T08:15:51.529Z,9.8
2022-09-28T08:16:55.070Z,9.8
2022-09-28T08:18:04.580Z,9.8
2022-09-28T08:19:06.930Z,9.7
2022-09-28T08:20:10.760Z,9.8
2022-09-28T08:21:14.126Z,9.8
2022-09-28T08:22:17.354Z,9.9
2022-09-28T08:23:21.083Z,9.8
2022-09-28T08:24:24.891Z,9.9
2022-09-28T08:25:27.683Z,9.9
2022-09-28T08:26:31.135Z,9.8
2022-09-28T08:27:34.514Z,9.7
2022-09-28T08:28:37.367Z,9.9
2022-09-28T08:29:40.897Z,9.9
2022-09-28T08:30:44.010Z,9.8
2022-09-28T08:31:47.770Z,9.6
2022-09-28T08:32:50.366Z,9.6
2022-09-28T08:33:53.852Z,9.8
2022-09-28T08:34:56.961Z,10
2022-09-28T08:36:01.067Z,10
2022-09-28T08:37:03.918Z,9.6
2022-09-28T08:38:06.631Z,9.7
2022-09-28T08:39:09.992Z,9.8
2022-09-28T08:40:12.865Z,9.9
2022-09-28T08:41:15.868Z,9.9
2022-09-28T08:42:18.583Z,9.9
2022-09-28T08:43:21.451Z,9.8
2022-09-28T08:44:24.625Z,10
2022-09-28T08:45:27.142Z,10
2022-09-28T08:46:30.309Z,10.2
2022-09-28T08:47:33.171Z,10.2
2022-09-28T08:48:36.627Z,10
2022-09-28T08:49:39.627Z,10.1
2022-09-28T08:50:43.306Z,10.1
2022-09-28T08:51:46.744Z,10.2
2022-09-28T08:52:50.248Z,10.1
2022-09-28T08:53:54.059Z,10.5
2022-09-28T08:54:56.943Z,10.4
2022-09-28T08:55:59.452Z,10.6
2022-09-28T08:57:03.265Z,10.8
2022-09-28T08:58:06.129Z,10.8
2022-09-28T08:59:09.627Z,10.9
2022-09-28T09:00:13.932Z,10.3
2022-09-28T09:01:18.106Z,10.4
2022-09-28T09:02:21.446Z,10.4
2022-09-28T09:03:24.602Z,10.7
2022-09-28T09:04:27.400Z,10.9
2022-09-28T09:05:30.519Z,10.5
2022-09-28T09:06:33.197Z,10.5
2022-09-28T09:07:37.458Z,10.9
2022-09-28T09:08:40.944Z,10.8
2022-09-28T09:09:43.485Z,10.6
2022-09-28T09:10:46.208Z,10.8
2022-09-28T09:11:49.471Z,11
2022-09-28T09:13:56.523Z,11.6
2022-09-28T09:14:59.329Z,11.6
2022-09-28T09:16:02.062Z,11.9
2022-09-28T09:17:05.765Z,11.9
2022-09-28T09:18:09.913Z,11.8
2022-09-28T09:19:12.916Z,11.6
2022-09-28T09:20:16.381Z,11.6
2022-09-28T09:21:19.752Z,11.6
2022-09-28T09:22:22.858Z,11.6
2022-09-28T09:23:26.726Z,11.4
2022-09-28T09:24:30.162Z,11.1
2022-09-28T09:25:40.128Z,10.9
2022-09-28T09:26:42.564Z,11
2022-09-28T09:27:45.728Z,11.3
2022-09-28T09:28:48.526Z,11.1
2022-09-28T09:29:51.357Z,11.1
2022-09-28T09:30:54.759Z,11.1
2022-09-28T09:31:58.249Z,11
2022-09-28T09:33:01.599Z,10.9
2022-09-28T09:34:04.678Z,10.8
2022-09-28T09:35:08.022Z,10.8
2022-09-28T09:36:10.814Z,10.9
2022-09-28T09:37:14.244Z,11.1
2022-09-28T09:38:17.258Z,11.1
2022-09-28T09:39:21.059Z,11
2022-09-28T09:40:24.399Z,10.9
2022-09-28T09:41:27.948Z,11.1
2022-09-28T09:42:31.368Z,11.3
2022-09-28T09:43:35.091Z,10.9
2022-09-28T09:44:38.529Z,11
2022-09-28T09:45:42.427Z,10.9
2022-09-28T09:46:45.647Z,11.1
2022-09-28T09:47:48.615Z,11.1
2022-09-28T09:48:51.766Z,11.3
2022-09-28T09:49:55.495Z,11.5
2022-09-28T09:50:58.297Z,11.7
2022-09-28T09:52:01.756Z,11.8
2022-09-28T09:53:05.129Z,11.9
2022-09-28T09:54:08.789Z,11.5
2022-09-28T09:55:12.903Z,11.6
2022-09-28T09:56:16.749Z,11.7
2022-09-28T09:57:20.459Z,11.9
2022-09-28T09:58:23.691Z,11.7
2022-09-28T09:59:27.164Z,11.9
2022-09-28T10:00:29.753Z,12.1
2022-09-28T10:01:32.829Z,12
2022-09-28T10:02:36.510Z,12.1
2022-09-28T10:03:39.072Z,12.1
2022-09-28T10:04:42.761Z,12.2
2022-09-28T10:05:44.905Z,12.7
2022-09-28T10:06:48.138Z,12.7
2022-09-28T10:07:51.206Z,12.7
2022-09-28T10:08:54.070Z,12
2022-09-28T10:09:57.550Z,11.8
2022-09-28T10:11:01.345Z,11.9
2022-09-28T10:12:05.084Z,11.9
2022-09-28T10:13:07.875Z,11.8
2022-09-28T10:14:10.863Z,11.7
2022-09-28T10:15:13.963Z,12.1
2022-09-28T10:16:17.916Z,12.1
2022-09-28T10:17:21.031Z,12.1
2022-09-28T10:18:24.418Z,12
2022-09-28T10:19:28.068Z,12.2
2022-09-28T10:20:31.803Z,12.4
2022-09-28T10:21:34.702Z,12
2022-09-28T10:22:38.150Z,12.2
2022-09-28T10:23:41.533Z,12.3
2022-09-28T10:24:44.333Z,12.1
2022-09-28T10:25:47.368Z,12.1
2022-09-28T10:26:51.110Z,12.1
2022-09-28T10:27:54.719Z,12.2
2022-09-28T10:28:57.872Z,12.3
2022-09-28T10:30:01.648Z,12.4
2022-09-28T10:31:05.291Z,13
2022-09-28T10:32:08.535Z,13
2022-09-28T10:33:12.052Z,13.3
2022-09-28T10:34:16.045Z,14
2022-09-28T10:35:20.170Z,14.3
2022-09-28T10:36:23.682Z,14.7
2022-09-28T10:37:26.685Z,14.7
2022-09-28T10:38:29.293Z,14.3
2022-09-28T10:39:32.746Z,13.8
2022-09-28T10:40:36.032Z,13.3
2022-09-28T10:41:39.752Z,13.5
2022-09-28T10:42:43.850Z,13.4
2022-09-28T10:43:58.904Z,13.5
2022-09-28T10:45:01.639Z,13.5
2022-09-28T10:46:04.615Z,13.2
2022-09-28T10:47:07.445Z,13.6
2022-09-28T10:48:10.238Z,14.4
2022-09-28T10:49:12.832Z,14.7
2022-09-28T10:50:15.079Z,15.3
2022-09-28T10:51:17.874Z,15.7
2022-09-28T10:52:21.048Z,15.4
2022-09-28T10:53:24.476Z,15.3
2022-09-28T10:54:28.551Z,15.3
2022-09-28T10:55:31.267Z,15.1
2022-09-28T10:56:34.610Z,15
2022-09-28T10:57:37.350Z,14.9
2022-09-28T10:58:41.173Z,14.7
2022-09-28T10:59:44.309Z,14.3
2022-09-28T11:00:48.042Z,14.2
2022-09-28T11:01:51.263Z,14.4
2022-09-28T11:02:54.704Z,15.2
2022-09-28T11:03:57.240Z,14.6
2022-09-28T11:05:00.592Z,14.5
2022-09-28T11:06:03.603Z,14.2
2022-09-28T11:07:07.604Z,14
2022-09-28T11:08:10.327Z,14.1
2022-09-28T11:09:13.465Z,14.1
2022-09-28T11:10:17.351Z,13.7
2022-09-28T11:11:20.913Z,13.9
2022-09-28T11:12:24.643Z,13.9
2022-09-28T11:13:27.107Z,14.4
2022-09-28T11:14:31.790Z,14.9
2022-09-28T11:15:35.547Z,15
2022-09-28T11:16:39.251Z,15.2
2022-09-28T11:17:42.797Z,15.6
2022-09-28T11:18:46.597Z,16.1
2022-09-28T11:19:49.468Z,16
2022-09-28T11:20:52.465Z,15.8
2022-09-28T11:21:55.258Z,15.7
2022-09-28T11:22:58.721Z,15.4
2022-09-28T11:24:01.825Z,15.1
2022-09-28T11:25:05.328Z,14.9
2022-09-28T11:26:08.782Z,14.7
2022-09-28T11:27:12.525Z,14.3
2022-09-28T11:28:16.356Z,14.2
2022-09-28T11:29:20.298Z,14.2
2022-09-28T11:30:24.772Z,13.9
2022-09-28T11:31:28.022Z,14.3
2022-09-28T11:32:31.184Z,14.4
2022-09-28T11:33:34.257Z,14.4
2022-09-28T11:35:01.425Z,14.1
2022-09-28T11:36:05.083Z,14
2022-09-28T11:37:07.962Z,14
2022-09-28T11:38:10.859Z,14.2
2022-09-28T11:39:14.008Z,14.2
2022-09-28T11:40:17.719Z,14.8
2022-09-28T11:41:21.191Z,15.1
2022-09-28T11:42:24.891Z,15.5
2022-09-28T11:43:28.414Z,16.2
2022-09-28T11:44:35.124Z,16.3
2022-09-28T11:45:39.314Z,15.4
2022-09-28T11:46:42.907Z,15.2
2022-09-28T11:47:45.986Z,15.4
2022-09-28T11:48:49.048Z,15.1
2022-09-28T11:49:51.938Z,14.6
2022-09-28T11:50:55.672Z,14.2
2022-09-28T11:51:58.772Z,14.4
2022-09-28T11:53:01.587Z,14.6
2022-09-28T11:54:05.022Z,14.6
2022-09-28T11:55:07.912Z,14.8
2022-09-28T11:56:11.345Z,15
2022-09-28T11:57:15.028Z,14.5
2022-09-28T11:58:17.969Z,14.4
2022-09-28T11:59:20.239Z,14.3
2022-09-28T12:00:22.592Z,14.1
2022-09-28T12:01:26.396Z,14.2
2022-09-28T12:02:30.416Z,13.8
2022-09-28T12:03:34.010Z,13.7
2022-09-28T12:04:37.362Z,13.8
2022-09-28T12:05:40.504Z,13.9
2022-09-28T12:06:43.947Z,13.8
2022-09-28T12:07:47.380Z,13.7
2022-09-28T12:08:50.554Z,13.4
2022-09-28T12:09:54.166Z,13.5
2022-09-28T12:10:57.398Z,13.4
2022-09-28T12:12:00.816Z,13.6
2022-09-28T12:13:04.443Z,13.4
2022-09-28T12:14:06.785Z,13.1
2022-09-28T12:15:09.677Z,12.9
2022-09-28T12:17:20.950Z,13
2022-09-28T12:18:25.309Z,13.1
2022-09-28T12:19:27.812Z,13.3
2022-09-28T12:20:31.549Z,13.1
2022-09-28T12:21:34.345Z,13.1
2022-09-28T12:22:37.769Z,13.1
2022-09-28T12:23:41.248Z,13.2
2022-09-28T12:24:44.985Z,13.3
2022-09-28T12:25:48.439Z,12.8
2022-09-28T12:26:51.037Z,12.9
2022-09-28T12:27:54.779Z,13.1
2022-09-28T12:28:57.213Z,13.3
2022-09-28T12:30:00.478Z,13
2022-09-28T12:31:03.820Z,13.1
2022-09-28T12:32:07.297Z,13.2
2022-09-28T12:33:10.307Z,13.1
2022-09-28T12:34:14.361Z,12.8
2022-09-28T12:35:17.535Z,13
2022-09-28T12:36:20.320Z,12.7
2022-09-28T12:37:22.821Z,12.8
2022-09-28T12:38:25.532Z,12.6
2022-09-28T12:40:00.258Z,12.5
2022-09-28T12:41:05.515Z,12.8
2022-09-28T12:42:09.111Z,12.7
2022-09-28T12:43:12.002Z,12.6
2022-09-28T12:44:14.651Z,12.6
2022-09-28T12:45:18.078Z,12.4
2022-09-28T12:46:21.931Z,12.2
2022-09-28T12:47:24.042Z,12.1
2022-09-28T12:48:27.562Z,12.2
2022-09-28T12:50:54.648Z,12.4
2022-09-28T12:52:01.876Z,12.5
2022-09-28T12:53:05.351Z,12.3
2022-09-28T12:54:08.139Z,12.4
2022-09-28T12:56:22.175Z,12.4
2022-09-28T12:57:24.965Z,12.3
2022-09-28T12:58:27.689Z,12.1
2022-09-28T12:59:30.581Z,11.8
2022-09-28T13:00:33.660Z,12
2022-09-28T13:01:37.484Z,12.1
2022-09-28T13:02:41.000Z,11.9
2022-09-28T13:03:45.144Z,11.8
2022-09-28T13:04:49.238Z,12.1
2022-09-28T13:05:52.974Z,12.1
2022-09-28T13:06:56.033Z,12.1
2022-09-28T13:07:59.373Z,12
2022-09-28T13:09:02.290Z,12
2022-09-28T13:10:05.636Z,11.8
2022-09-28T13:11:09.772Z,11.9
2022-09-28T13:12:12.779Z,12
2022-09-28T13:13:16.645Z,12
2022-09-28T13:14:19.268Z,11.9
2022-09-28T13:15:22.973Z,12
2022-09-28T13:16:26.597Z,12
2022-09-28T13:17:30.146Z,12
2022-09-28T13:18:33.350Z,11.9
2022-09-28T13:19:36.767Z,12
2022-09-28T13:20:40.822Z,12
2022-09-28T13:21:43.922Z,11.9
2022-09-28T13:22:46.377Z,11.9
2022-09-28T13:23:50.373Z,11.8
2022-09-28T13:24:53.563Z,11.9
2022-09-28T13:25:56.276Z,11.9
2022-09-28T13:26:59.005Z,11.9
2022-09-28T13:28:02.164Z,11.9
2022-09-28T13:29:05.588Z,11.9
2022-09-28T13:30:08.502Z,11.9
2022-09-28T13:31:10.661Z,11.9
2022-09-28T13:32:13.544Z,12
2022-09-28T13:33:16.043Z,12
2022-09-28T13:34:19.605Z,12.1
2022-09-28T13:35:23.144Z,12.1
2022-09-28T13:36:27.065Z,12.2
2022-09-28T13:37:29.886Z,12.2
2022-09-28T13:38:33.236Z,12.1
2022-09-28T13:39:36.941Z,12.3
2022-09-28T13:40:41.189Z,12.4
2022-09-28T13:41:43.812Z,12.2
2022-09-28T13:42:47.439Z,12.2
2022-09-28T13:43:50.496Z,12.1
2022-09-28T13:44:53.124Z,12.4
2022-09-28T13:45:57.275Z,12.6
2022-09-28T13:46:59.809Z,13.1
2022-09-28T13:48:03.535Z,13.1
2022-09-28T13:49:06.609Z,13.3
2022-09-28T13:50:09.798Z,13.4
2022-09-28T13:51:13.159Z,13.3
2022-09-28T13:52:16.729Z,13.6
2022-09-28T13:53:20.209Z,14
2022-09-28T13:54:23.581Z,14.3
2022-09-28T13:55:26.686Z,14.5
2022-09-28T13:56:29.467Z,14.2
2022-09-28T13:57:32.622Z,14.4
2022-09-28T13:58:35.766Z,14.1
2022-09-28T13:59:38.761Z,14.3
2022-09-28T14:00:42.746Z,14.6
2022-09-28T14:01:46.703Z,14.5
2022-09-28T14:02:49.616Z,14.8
2022-09-28T14:03:53.432Z,14.8
2022-09-28T14:04:56.891Z,15.1
2022-09-28T14:05:59.702Z,14.8
2022-09-28T14:07:02.535Z,14.6
2022-09-28T14:08:06.373Z,14.3
2022-09-28T14:09:09.744Z,14.1
2022-09-28T14:10:13.553Z,13.8
2022-09-28T14:11:16.611Z,13.9
2022-09-28T14:12:19.684Z,14
2022-09-28T14:13:22.547Z,14.2
2022-09-28T14:14:25.437Z,14.3
2022-09-28T14:15:29.186Z,13.8
2022-09-28T14:16:33.146Z,14.1
2022-09-28T14:17:36.139Z,14.3
2022-09-28T14:18:39.871Z,13.9
2022-09-28T14:19:42.657Z,13.8
2022-09-28T14:20:46.109Z,13.9
2022-09-28T14:21:49.025Z,14.3
2022-09-28T14:22:52.082Z,14.8
2022-09-28T14:24:01.367Z,15
2022-09-28T14:25:04.494Z,15.2
2022-09-28T14:26:07.203Z,15.7
2022-09-28T14:27:10.732Z,16
2022-09-28T14:28:13.563Z,15.6
2022-09-28T14:29:17.349Z,16.2
2022-09-28T14:30:20.059Z,16.9
2022-09-28T14:31:22.663Z,17.1
2022-09-28T14:32:26.121Z,17.2
2022-09-28T14:33:28.918Z,16.9
2022-09-28T14:34:31.791Z,16.2
2022-09-28T14:35:35.215Z,16.7
2022-09-28T14:36:38.030Z,16.4